Ride Results

Kimberley Fire Brigade Challenge (07-05-2011)
Ride distance: 80.0 km

Outcomes - Kimberley Fire Brigade Challenge (07-05-2011)
Division No. of Entries Retired / DNE Completed Withdrawn Ineligible V/O Percentage Completed
HW 10 - 6 - - 4 60.00%
MW 22 - 20 - - 2 90.91%
LW 8 - 8 - - - 100.00%
JN 7 - 7 - - - 100.00%
Totals 47 - 41 - - 6 87.23%
Results - Kimberley Fire Brigade Challenge (07-05-2011)
No. Rider Horse Place Time Leg Speeds Total
Km/Hr
H/R bpm
Heavyweight
137 John Shoobridge Fantasia 1 (BC) 5:08:10 16.4, 14.7 15.58 39, 42, 52 (Avg:47)
93 Jeremy Ford Ruby Running Bare 2 6:07:10 15.7, 11.1 13.07 43, 48, 50 (Avg:49)
199 Dennis Foley Jnr Jack 3 6:11:20 14.5, 11.6 12.93 33, 45, 49 (Avg:47)
224 Matthew Haig Summer Breeze 4 6:44:00 12.4, 11.3 11.88 45, 44, 47 (Avg:45)
177 Penny Barnes Mrs Boyde 5 7:46:00 12.3, 8.8 10.30 50, 47, 52 (Avg:49)
178 Alf Barnes Cranbrook Park Tank 6 7:46:01 12.3, 8.8 10.30 48, 45, 51 (Avg:48)
82 Mark Dunn Bella Heart Rate L2 0:00:00 12.4, 9.6 - 36, 44, 63 (Avg:53)
122 Ged Nicklason Wongawol Digger Heart Rate L2 0:00:00 17.0, 14.3 - 36, 48, 66 (Avg:57)
80 Noel Lockhart The Hobbit Lame L1 0:00:00 13.1 - 33, 42 (Avg:42)
166 Craig Wilson Dial Range Saphira Gall or injury L1 0:00:00 12.3 - 36, 44 (Avg:44)
Middleweight
99 Heather Johnson Black Heart Dashar 1 (BC) 5:10:00 17.0, 14.2 15.48 39, 47, 48 (Avg:47)
136 Kaye Mitchell Beer Street Bluewitch 1 5:10:00 17.0, 14.2 15.48 34, 42, 46 (Avg:44)
38 Tony Purton Dial Range Park Omen 3 6:01:00 16.5, 11.1 13.30 36, 41, 50 (Avg:45)
16 Margaret Richardson Bold Belle 4 6:07:00 15.7, 11.1 13.08 30, 42, 45 (Avg:43)
180 Nicole Ford Highland View Piper 5 6:11:00 14.5, 11.6 12.94 42, 44, 43 (Avg:43)
176 Greg Burford Underwood Silk Sari 6 6:11:30 14.2, 11.7 12.92 48, 53, 51 (Avg:52)
77 Alison Lockhart Razara Xstatiq 7 6:14:00 13.1, 12.4 12.83 42, 41, 45 (Avg:43)
78 Brad Hill Lockleigh Park Sparks Afire 8 6:14:01 13.1, 12.4 12.83 38, 46, 55 (Avg:50)
49 Kelly Woodhouse Crystal 9 6:26:01 12.6, 12.2 12.43 36, 46, 48 (Avg:47)
216 David Evelyn Kalody Park Peppermint Twist 10 6:39:00 12.7, 11.3 12.03 32, 39, 45 (Avg:42)
114 Tara Nicklason Mulawa Flight 11 6:41:00 12.6, 11.3 11.97 38, 49, 56 (Avg:52)
230 Melany Rowe Orabanda Dancing Silhouette 12 6:44:00 12.4, 11.3 11.88 38, 44, 51 (Avg:47)
204 Casey Hayes Duke 13 6:47:00 12.5, 11.1 11.79 47, 46, 49 (Avg:47)
188 Leanne Freeman Copper 14 7:01:00 11.8, 11.0 11.40 35, 48, 52 (Avg:50)
179 Debbie Grull Holiday 15 7:17:02 12.5, 9.7 10.98 39, 44, 51 (Avg:47)
57 Tania Jago Excalibar Lance 16 7:42:00 11.5, 9.4 10.39 33, 43, 49 (Avg:46)
30 Karyn Holden Sahra Razeel 17 7:46:02 12.0, 8.9 10.30 38, 42, 56 (Avg:49)
50 Joanne Marshall Rivergum Windchime 18 7:58:00 10.2, 9.8 10.04 52, 46, 49 (Avg:47)
145 Peter Treleor Glenleigh Maxamus 19 8:12:00 11.1, 8.6 9.76 38, 39, 47 (Avg:43)
102 Keryn Mahoney Tonki Dee Boo Addition 20 8:21:00 9.9, 9.1 9.58 39, 46, 48 (Avg:47)
213 Ricky Febey DJ Rocky Lame L1 0:00:00 12.5 - 39, 45 (Avg:45)
240 Lizzy Glover Pterion Angelica Lame L1 0:00:00 12.5 - 33, 45 (Avg:45)
Lightweight
37 Jen Clingly Imaj Zamir 1 (BC) 6:07:20 15.7, 11.1 13.07 34, 41, 45 (Avg:43)
225 Jane Walsh Banda Boozle 2 6:14:03 13.1, 12.4 12.83 31, 40, 43 (Avg:41)
115 Jenny Keygan Woodsong Kasanova 3 7:19:00 12.0, 9.9 10.93 30, 39, 49 (Avg:44)
182 Fran Jordan Tierview Saadat 4 7:19:01 12.0, 9.9 10.93 46, 50, 60 (Avg:55)
32 Donna Wall Lauralyn Bayeta 5 7:42:00 11.5, 9.4 10.39 60, 42, 47 (Avg:44)
148 Jeremy Robertson Larabi Bint Fantasy 6 7:58:02 10.2, 9.8 10.04 32, 38, 40 (Avg:39)
8 Jean Treloar Chocolate Latte 7 8:12:00 11.1, 8.6 9.76 50, 46, 52 (Avg:49)
1 Ann Richards Tonki Dee Boo Pricilla 8 8:21:00 9.9, 9.1 9.58 40, 41, 43 (Avg:42)
Junior
190 Alice Mitchell Krystal Creek Karisma 1 (BC) 5:16:00 16.5, 14.0 15.19 41, 48, 52 (Avg:50)
79 Shannon Hill Lockleigh Park Wildfire 2 6:14:02 13.1, 12.4 12.83 35, 37, 47 (Avg:42)
150 Emily Shadbolt Black Heart Wes 3 6:28:00 12.6, 12.1 12.37 38, 45, 48 (Avg:46)
233 Annalise Glover Ethereal Park J-Irena 4 6:28:02 12.5, 12.1 12.37 29, 40, 43 (Avg:41)
47 Hannah Colbeck Malricia Frankie 5 7:19:30 12.1, 9.8 10.92 35, 46, 58 (Avg:52)
74 Felicity Perry Hunter 5 7:19:30 12.1, 9.8 10.92 32, 40, 44 (Avg:42)
226 Hayley Marshall Rowallan Aspin 7 7:58:01 10.2, 9.8 10.04 37, 43, 46 (Avg:44)